sensor_id;sensor_type;location;lat;lon;timestamp;P1;durP1;ratioP1;P2;durP2;ratioP2
71435;SDS011;59251;51.326;12.370;2023-06-26T00:01:04;10.25;;;3.88;;
71435;SDS011;59251;51.326;12.370;2023-06-26T00:03:32;10.95;;;4.53;;
71435;SDS011;59251;51.326;12.370;2023-06-26T00:05:59;8.73;;;3.90;;
71435;SDS011;59251;51.326;12.370;2023-06-26T00:08:26;8.07;;;3.90;;
71435;SDS011;59251;51.326;12.370;2023-06-26T00:10:53;8.87;;;4.30;;
71435;SDS011;59251;51.326;12.370;2023-06-26T00:13:20;8.32;;;3.60;;
71435;SDS011;59251;51.326;12.370;2023-06-26T00:15:48;9.43;;;4.00;;
71435;SDS011;59251;51.326;12.370;2023-06-26T00:18:14;9.13;;;4.05;;
71435;SDS011;59251;51.326;12.370;2023-06-26T00:20:41;9.15;;;4.18;;
71435;SDS011;59251;51.326;12.370;2023-06-26T00:23:08;8.70;;;3.73;;
71435;SDS011;59251;51.326;12.370;2023-06-26T00:25:35;10.23;;;4.00;;
71435;SDS011;59251;51.326;12.370;2023-06-26T00:28:01;10.13;;;4.13;;
71435;SDS011;59251;51.326;12.370;2023-06-26T00:30:29;10.55;;;4.57;;
71435;SDS011;59251;51.326;12.370;2023-06-26T00:32:57;8.80;;;4.07;;
71435;SDS011;59251;51.326;12.370;2023-06-26T00:35:24;7.70;;;3.50;;
71435;SDS011;59251;51.326;12.370;2023-06-26T00:37:51;8.50;;;4.00;;
71435;SDS011;59251;51.326;12.370;2023-06-26T00:40:17;8.40;;;4.10;;
71435;SDS011;59251;51.326;12.370;2023-06-26T00:42:44;9.88;;;4.55;;
71435;SDS011;59251;51.326;12.370;2023-06-26T00:45:13;10.50;;;4.60;;
71435;SDS011;59251;51.326;12.370;2023-06-26T00:47:40;10.17;;;3.63;;
71435;SDS011;59251;51.326;12.370;2023-06-26T00:50:08;8.85;;;4.00;;
71435;SDS011;59251;51.326;12.370;2023-06-26T00:52:35;9.20;;;4.10;;
71435;SDS011;59251;51.326;12.370;2023-06-26T00:55:03;8.63;;;3.95;;
71435;SDS011;59251;51.326;12.370;2023-06-26T00:57:30;8.35;;;3.80;;
71435;SDS011;59251;51.326;12.370;2023-06-26T00:59:58;8.67;;;4.03;;
71435;SDS011;59251;51.326;12.370;2023-06-26T01:02:29;9.52;;;4.22;;
71435;SDS011;59251;51.326;12.370;2023-06-26T01:04:58;8.73;;;4.15;;
71435;SDS011;59251;51.326;12.370;2023-06-26T01:07:28;12.57;;;5.18;;
71435;SDS011;59251;51.326;12.370;2023-06-26T01:09:57;8.30;;;4.45;;
71435;SDS011;59251;51.326;12.370;2023-06-26T01:12:25;9.63;;;4.20;;
71435;SDS011;59251;51.326;12.370;2023-06-26T01:14:51;10.90;;;4.32;;
71435;SDS011;59251;51.326;12.370;2023-06-26T01:17:18;9.50;;;4.18;;
71435;SDS011;59251;51.326;12.370;2023-06-26T01:19:45;8.90;;;4.25;;
71435;SDS011;59251;51.326;12.370;2023-06-26T01:22:29;9.15;;;4.20;;
71435;SDS011;59251;51.326;12.370;2023-06-26T01:25:12;9.87;;;3.87;;
71435;SDS011;59251;51.326;12.370;2023-06-26T01:27:45;8.77;;;4.32;;
71435;SDS011;59251;51.326;12.370;2023-06-26T01:30:14;10.52;;;4.07;;
71435;SDS011;59251;51.326;12.370;2023-06-26T01:32:43;9.68;;;4.05;;
71435;SDS011;59251;51.326;12.370;2023-06-26T01:35:10;8.73;;;3.95;;
71435;SDS011;59251;51.326;12.370;2023-06-26T01:37:38;9.93;;;4.33;;
71435;SDS011;59251;51.326;12.370;2023-06-26T01:40:05;8.52;;;3.80;;
71435;SDS011;59251;51.326;12.370;2023-06-26T01:42:33;10.82;;;4.43;;
71435;SDS011;59251;51.326;12.370;2023-06-26T01:45:02;8.20;;;3.90;;
71435;SDS011;59251;51.326;12.370;2023-06-26T01:47:34;11.45;;;4.30;;
71435;SDS011;59251;51.326;12.370;2023-06-26T01:50:04;10.53;;;4.57;;
71435;SDS011;59251;51.326;12.370;2023-06-26T01:52:41;10.40;;;4.07;;
71435;SDS011;59251;51.326;12.370;2023-06-26T01:55:11;9.93;;;4.63;;
71435;SDS011;59251;51.326;12.370;2023-06-26T01:57:48;7.78;;;3.83;;
71435;SDS011;59251;51.326;12.370;2023-06-26T02:00:18;10.02;;;4.55;;
71435;SDS011;59251;51.326;12.370;2023-06-26T02:02:46;8.80;;;4.13;;
71435;SDS011;59251;51.326;12.370;2023-06-26T02:05:14;10.02;;;4.28;;
71435;SDS011;59251;51.326;12.370;2023-06-26T02:07:40;10.85;;;4.20;;
71435;SDS011;59251;51.326;12.370;2023-06-26T02:10:09;8.68;;;3.75;;
71435;SDS011;59251;51.326;12.370;2023-06-26T02:12:36;8.82;;;4.25;;
71435;SDS011;59251;51.326;12.370;2023-06-26T02:15:04;10.17;;;4.20;;
71435;SDS011;59251;51.326;12.370;2023-06-26T02:17:34;8.95;;;4.28;;
71435;SDS011;59251;51.326;12.370;2023-06-26T02:20:00;9.60;;;4.22;;
71435;SDS011;59251;51.326;12.370;2023-06-26T02:22:27;10.85;;;4.53;;
71435;SDS011;59251;51.326;12.370;2023-06-26T02:24:54;10.45;;;4.15;;
71435;SDS011;59251;51.326;12.370;2023-06-26T02:27:20;10.37;;;4.30;;
71435;SDS011;59251;51.326;12.370;2023-06-26T02:29:47;10.55;;;4.45;;
71435;SDS011;59251;51.326;12.370;2023-06-26T02:32:14;10.00;;;5.00;;
71435;SDS011;59251;51.326;12.370;2023-06-26T02:34:42;10.23;;;4.75;;
71435;SDS011;59251;51.326;12.370;2023-06-26T02:37:08;9.73;;;4.57;;
71435;SDS011;59251;51.326;12.370;2023-06-26T02:39:35;11.00;;;4.43;;
71435;SDS011;59251;51.326;12.370;2023-06-26T02:42:02;10.63;;;4.65;;
71435;SDS011;59251;51.326;12.370;2023-06-26T02:44:29;10.35;;;4.90;;
71435;SDS011;59251;51.326;12.370;2023-06-26T02:46:56;10.68;;;5.00;;
71435;SDS011;59251;51.326;12.370;2023-06-26T02:49:23;9.68;;;4.68;;
71435;SDS011;59251;51.326;12.370;2023-06-26T02:51:51;13.70;;;5.17;;
71435;SDS011;59251;51.326;12.370;2023-06-26T02:54:23;10.23;;;5.32;;
71435;SDS011;59251;51.326;12.370;2023-06-26T02:56:53;9.63;;;4.82;;
71435;SDS011;59251;51.326;12.370;2023-06-26T02:59:25;8.80;;;4.47;;
71435;SDS011;59251;51.326;12.370;2023-06-26T03:01:53;11.38;;;5.38;;
71435;SDS011;59251;51.326;12.370;2023-06-26T03:04:25;11.27;;;5.10;;
71435;SDS011;59251;51.326;12.370;2023-06-26T03:06:53;11.48;;;5.22;;
71435;SDS011;59251;51.326;12.370;2023-06-26T03:09:19;12.75;;;5.78;;
71435;SDS011;59251;51.326;12.370;2023-06-26T03:11:48;11.18;;;5.22;;
71435;SDS011;59251;51.326;12.370;2023-06-26T03:14:14;11.82;;;5.40;;
71435;SDS011;59251;51.326;12.370;2023-06-26T03:16:41;11.77;;;4.70;;
71435;SDS011;59251;51.326;12.370;2023-06-26T03:19:08;13.57;;;5.20;;
71435;SDS011;59251;51.326;12.370;2023-06-26T03:21:56;10.48;;;5.38;;
71435;SDS011;59251;51.326;12.370;2023-06-26T03:24:23;11.77;;;5.22;;
71435;SDS011;59251;51.326;12.370;2023-06-26T03:26:50;11.18;;;5.60;;
71435;SDS011;59251;51.326;12.370;2023-06-26T03:29:17;9.47;;;4.50;;
71435;SDS011;59251;51.326;12.370;2023-06-26T03:31:43;10.65;;;5.43;;
71435;SDS011;59251;51.326;12.370;2023-06-26T03:34:10;11.88;;;5.25;;
71435;SDS011;59251;51.326;12.370;2023-06-26T03:36:37;11.80;;;5.50;;
71435;SDS011;59251;51.326;12.370;2023-06-26T03:39:05;11.65;;;5.40;;
71435;SDS011;59251;51.326;12.370;2023-06-26T03:41:32;11.90;;;5.13;;
71435;SDS011;59251;51.326;12.370;2023-06-26T03:43:58;10.57;;;4.75;;
71435;SDS011;59251;51.326;12.370;2023-06-26T03:46:31;14.48;;;5.63;;
71435;SDS011;59251;51.326;12.370;2023-06-26T03:48:57;10.68;;;5.57;;
71435;SDS011;59251;51.326;12.370;2023-06-26T03:51:24;11.90;;;5.68;;
71435;SDS011;59251;51.326;12.370;2023-06-26T03:53:51;10.70;;;5.10;;
71435;SDS011;59251;51.326;12.370;2023-06-26T03:56:19;14.38;;;5.80;;
71435;SDS011;59251;51.326;12.370;2023-06-26T03:58:47;13.05;;;6.30;;
71435;SDS011;59251;51.326;12.370;2023-06-26T04:01:14;13.15;;;6.00;;
71435;SDS011;59251;51.326;12.370;2023-06-26T04:03:42;11.40;;;5.63;;
71435;SDS011;59251;51.326;12.370;2023-06-26T04:06:10;11.63;;;4.83;;
71435;SDS011;59251;51.326;12.370;2023-06-26T04:08:37;10.95;;;4.80;;
71435;SDS011;59251;51.326;12.370;2023-06-26T04:11:04;9.15;;;4.47;;
71435;SDS011;59251;51.326;12.370;2023-06-26T04:13:33;12.13;;;5.28;;
71435;SDS011;59251;51.326;12.370;2023-06-26T04:15:59;10.38;;;4.63;;
71435;SDS011;59251;51.326;12.370;2023-06-26T04:18:26;11.47;;;5.17;;
71435;SDS011;59251;51.326;12.370;2023-06-26T04:21:07;10.52;;;5.10;;
71435;SDS011;59251;51.326;12.370;2023-06-26T04:23:35;10.82;;;5.00;;
71435;SDS011;59251;51.326;12.370;2023-06-26T04:26:02;10.05;;;5.03;;
71435;SDS011;59251;51.326;12.370;2023-06-26T04:28:30;10.50;;;5.05;;
71435;SDS011;59251;51.326;12.370;2023-06-26T04:30:58;9.77;;;4.73;;
71435;SDS011;59251;51.326;12.370;2023-06-26T04:33:25;10.30;;;4.65;;
71435;SDS011;59251;51.326;12.370;2023-06-26T04:35:52;9.55;;;4.80;;
71435;SDS011;59251;51.326;12.370;2023-06-26T04:38:18;12.00;;;4.90;;
71435;SDS011;59251;51.326;12.370;2023-06-26T04:40:46;11.43;;;5.00;;
71435;SDS011;59251;51.326;12.370;2023-06-26T04:43:13;8.80;;;4.57;;
71435;SDS011;59251;51.326;12.370;2023-06-26T04:45:40;11.50;;;5.25;;
71435;SDS011;59251;51.326;12.370;2023-06-26T04:48:08;11.52;;;4.57;;
71435;SDS011;59251;51.326;12.370;2023-06-26T04:50:35;9.73;;;4.72;;
71435;SDS011;59251;51.326;12.370;2023-06-26T04:53:01;9.13;;;4.75;;
71435;SDS011;59251;51.326;12.370;2023-06-26T04:55:28;10.60;;;4.97;;
71435;SDS011;59251;51.326;12.370;2023-06-26T04:57:55;9.98;;;5.07;;
71435;SDS011;59251;51.326;12.370;2023-06-26T05:00:22;9.60;;;4.68;;
71435;SDS011;59251;51.326;12.370;2023-06-26T05:02:50;9.73;;;4.85;;
71435;SDS011;59251;51.326;12.370;2023-06-26T05:05:25;9.65;;;4.78;;
71435;SDS011;59251;51.326;12.370;2023-06-26T05:07:52;9.47;;;4.50;;
71435;SDS011;59251;51.326;12.370;2023-06-26T05:10:20;11.52;;;4.45;;
71435;SDS011;59251;51.326;12.370;2023-06-26T05:12:46;9.55;;;4.32;;
71435;SDS011;59251;51.326;12.370;2023-06-26T05:15:13;10.77;;;4.97;;
71435;SDS011;59251;51.326;12.370;2023-06-26T05:17:40;10.15;;;4.68;;
71435;SDS011;59251;51.326;12.370;2023-06-26T05:20:07;11.53;;;5.10;;
71435;SDS011;59251;51.326;12.370;2023-06-26T05:22:36;11.73;;;4.32;;
71435;SDS011;59251;51.326;12.370;2023-06-26T05:25:04;10.50;;;4.65;;
71435;SDS011;59251;51.326;12.370;2023-06-26T05:27:33;10.07;;;4.63;;
71435;SDS011;59251;51.326;12.370;2023-06-26T05:30:01;11.15;;;4.70;;
71435;SDS011;59251;51.326;12.370;2023-06-26T05:32:28;12.40;;;4.53;;
71435;SDS011;59251;51.326;12.370;2023-06-26T05:34:56;10.65;;;4.63;;
71435;SDS011;59251;51.326;12.370;2023-06-26T05:37:24;11.65;;;5.38;;
71435;SDS011;59251;51.326;12.370;2023-06-26T05:39:56;10.95;;;4.43;;
71435;SDS011;59251;51.326;12.370;2023-06-26T05:42:23;14.10;;;4.65;;
71435;SDS011;59251;51.326;12.370;2023-06-26T05:44:50;9.37;;;5.00;;
71435;SDS011;59251;51.326;12.370;2023-06-26T05:47:16;10.10;;;4.85;;
71435;SDS011;59251;51.326;12.370;2023-06-26T05:49:43;10.20;;;4.80;;
71435;SDS011;59251;51.326;12.370;2023-06-26T05:52:10;10.15;;;4.30;;
71435;SDS011;59251;51.326;12.370;2023-06-26T05:54:38;11.82;;;5.35;;
71435;SDS011;59251;51.326;12.370;2023-06-26T05:57:06;10.47;;;4.60;;
71435;SDS011;59251;51.326;12.370;2023-06-26T05:59:34;11.38;;;5.30;;
71435;SDS011;59251;51.326;12.370;2023-06-26T06:02:06;9.68;;;5.53;;
71435;SDS011;59251;51.326;12.370;2023-06-26T06:04:32;9.35;;;4.88;;
71435;SDS011;59251;51.326;12.370;2023-06-26T06:07:00;9.32;;;4.75;;
71435;SDS011;59251;51.326;12.370;2023-06-26T06:09:27;12.13;;;5.50;;
71435;SDS011;59251;51.326;12.370;2023-06-26T06:11:53;12.10;;;5.05;;
71435;SDS011;59251;51.326;12.370;2023-06-26T06:14:21;8.93;;;5.00;;
71435;SDS011;59251;51.326;12.370;2023-06-26T06:16:48;12.00;;;4.70;;
71435;SDS011;59251;51.326;12.370;2023-06-26T06:19:14;9.50;;;5.15;;
71435;SDS011;59251;51.326;12.370;2023-06-26T06:21:41;9.27;;;5.07;;
71435;SDS011;59251;51.326;12.370;2023-06-26T06:24:08;11.27;;;4.95;;
71435;SDS011;59251;51.326;12.370;2023-06-26T06:26:35;10.25;;;5.05;;
71435;SDS011;59251;51.326;12.370;2023-06-26T06:29:01;13.40;;;5.40;;
71435;SDS011;59251;51.326;12.370;2023-06-26T06:31:29;12.23;;;5.43;;
71435;SDS011;59251;51.326;12.370;2023-06-26T06:33:56;10.37;;;4.87;;
71435;SDS011;59251;51.326;12.370;2023-06-26T06:36:23;10.13;;;4.95;;
71435;SDS011;59251;51.326;12.370;2023-06-26T06:38:49;10.82;;;5.05;;
71435;SDS011;59251;51.326;12.370;2023-06-26T06:41:16;11.82;;;5.72;;
71435;SDS011;59251;51.326;12.370;2023-06-26T06:43:43;10.35;;;5.22;;
71435;SDS011;59251;51.326;12.370;2023-06-26T06:46:10;10.77;;;5.47;;
71435;SDS011;59251;51.326;12.370;2023-06-26T06:48:38;11.65;;;5.20;;
71435;SDS011;59251;51.326;12.370;2023-06-26T06:51:04;10.10;;;5.25;;
71435;SDS011;59251;51.326;12.370;2023-06-26T06:53:31;11.25;;;5.15;;
71435;SDS011;59251;51.326;12.370;2023-06-26T06:55:58;11.13;;;5.15;;
71435;SDS011;59251;51.326;12.370;2023-06-26T06:58:24;10.77;;;5.27;;
71435;SDS011;59251;51.326;12.370;2023-06-26T07:00:51;10.38;;;5.30;;
71435;SDS011;59251;51.326;12.370;2023-06-26T07:03:18;11.70;;;5.50;;
71435;SDS011;59251;51.326;12.370;2023-06-26T07:05:47;10.88;;;5.45;;
71435;SDS011;59251;51.326;12.370;2023-06-26T07:08:14;11.88;;;5.50;;
71435;SDS011;59251;51.326;12.370;2023-06-26T07:10:41;11.37;;;5.20;;
71435;SDS011;59251;51.326;12.370;2023-06-26T07:13:08;11.25;;;5.25;;
71435;SDS011;59251;51.326;12.370;2023-06-26T07:15:34;9.02;;;4.90;;
71435;SDS011;59251;51.326;12.370;2023-06-26T07:18:01;13.30;;;5.20;;
71435;SDS011;59251;51.326;12.370;2023-06-26T07:20:28;10.38;;;5.55;;
71435;SDS011;59251;51.326;12.370;2023-06-26T07:22:56;10.80;;;6.03;;
71435;SDS011;59251;51.326;12.370;2023-06-26T07:25:22;12.25;;;5.72;;
71435;SDS011;59251;51.326;12.370;2023-06-26T07:27:49;12.00;;;5.28;;
71435;SDS011;59251;51.326;12.370;2023-06-26T07:30:16;10.40;;;5.18;;
71435;SDS011;59251;51.326;12.370;2023-06-26T07:32:44;10.20;;;5.50;;
71435;SDS011;59251;51.326;12.370;2023-06-26T07:35:11;10.13;;;5.37;;
71435;SDS011;59251;51.326;12.370;2023-06-26T07:37:38;9.75;;;5.20;;
71435;SDS011;59251;51.326;12.370;2023-06-26T07:40:08;11.60;;;5.53;;
71435;SDS011;59251;51.326;12.370;2023-06-26T07:42:35;10.40;;;4.85;;
71435;SDS011;59251;51.326;12.370;2023-06-26T07:45:02;10.15;;;5.40;;
71435;SDS011;59251;51.326;12.370;2023-06-26T07:47:34;11.57;;;5.83;;
71435;SDS011;59251;51.326;12.370;2023-06-26T07:50:01;9.90;;;5.25;;
71435;SDS011;59251;51.326;12.370;2023-06-26T07:52:28;12.68;;;5.65;;
71435;SDS011;59251;51.326;12.370;2023-06-26T07:54:55;9.40;;;5.15;;
71435;SDS011;59251;51.326;12.370;2023-06-26T07:57:23;10.88;;;5.18;;
71435;SDS011;59251;51.326;12.370;2023-06-26T07:59:50;10.33;;;5.50;;
71435;SDS011;59251;51.326;12.370;2023-06-26T08:02:17;10.07;;;5.18;;
71435;SDS011;59251;51.326;12.370;2023-06-26T08:04:44;9.90;;;5.22;;
71435;SDS011;59251;51.326;12.370;2023-06-26T08:07:11;9.57;;;5.80;;
71435;SDS011;59251;51.326;12.370;2023-06-26T08:09:39;11.45;;;6.35;;
71435;SDS011;59251;51.326;12.370;2023-06-26T08:12:06;10.67;;;5.40;;
71435;SDS011;59251;51.326;12.370;2023-06-26T08:14:34;9.70;;;5.65;;
71435;SDS011;59251;51.326;12.370;2023-06-26T08:17:01;11.68;;;5.85;;
71435;SDS011;59251;51.326;12.370;2023-06-26T08:19:27;11.82;;;5.93;;
71435;SDS011;59251;51.326;12.370;2023-06-26T08:21:54;11.18;;;6.18;;
71435;SDS011;59251;51.326;12.370;2023-06-26T08:24:21;11.97;;;5.23;;
71435;SDS011;59251;51.326;12.370;2023-06-26T08:26:48;10.88;;;5.60;;
71435;SDS011;59251;51.326;12.370;2023-06-26T08:29:14;10.02;;;5.72;;
71435;SDS011;59251;51.326;12.370;2023-06-26T08:31:42;10.35;;;5.70;;
71435;SDS011;59251;51.326;12.370;2023-06-26T08:34:09;11.50;;;5.72;;
71435;SDS011;59251;51.326;12.370;2023-06-26T08:36:36;10.03;;;6.13;;
71435;SDS011;59251;51.326;12.370;2023-06-26T08:39:03;10.85;;;5.55;;
71435;SDS011;59251;51.326;12.370;2023-06-26T08:41:31;12.02;;;5.72;;
71435;SDS011;59251;51.326;12.370;2023-06-26T08:43:57;10.45;;;5.70;;
71435;SDS011;59251;51.326;12.370;2023-06-26T08:46:24;11.48;;;5.85;;
71435;SDS011;59251;51.326;12.370;2023-06-26T08:48:54;10.33;;;6.00;;
71435;SDS011;59251;51.326;12.370;2023-06-26T08:51:23;10.18;;;5.90;;
71435;SDS011;59251;51.326;12.370;2023-06-26T08:53:52;9.77;;;5.75;;
71435;SDS011;59251;51.326;12.370;2023-06-26T08:56:24;9.88;;;5.65;;
71435;SDS011;59251;51.326;12.370;2023-06-26T08:58:53;11.02;;;5.60;;
71435;SDS011;59251;51.326;12.370;2023-06-26T09:01:20;11.43;;;5.83;;
71435;SDS011;59251;51.326;12.370;2023-06-26T09:03:49;11.68;;;5.82;;
71435;SDS011;59251;51.326;12.370;2023-06-26T09:06:18;12.77;;;5.80;;
71435;SDS011;59251;51.326;12.370;2023-06-26T09:08:45;10.60;;;5.20;;
71435;SDS011;59251;51.326;12.370;2023-06-26T09:11:12;10.20;;;5.47;;
71435;SDS011;59251;51.326;12.370;2023-06-26T09:13:39;11.93;;;5.70;;
71435;SDS011;59251;51.326;12.370;2023-06-26T09:16:06;10.40;;;5.53;;
71435;SDS011;59251;51.326;12.370;2023-06-26T09:18:34;11.43;;;5.30;;
71435;SDS011;59251;51.326;12.370;2023-06-26T09:21:05;10.65;;;5.47;;
71435;SDS011;59251;51.326;12.370;2023-06-26T09:23:34;10.95;;;5.30;;
71435;SDS011;59251;51.326;12.370;2023-06-26T09:26:02;10.80;;;5.53;;
71435;SDS011;59251;51.326;12.370;2023-06-26T09:28:29;9.88;;;5.35;;
71435;SDS011;59251;51.326;12.370;2023-06-26T09:31:00;10.80;;;5.75;;
71435;SDS011;59251;51.326;12.370;2023-06-26T09:33:32;12.18;;;5.43;;
71435;SDS011;59251;51.326;12.370;2023-06-26T09:35:59;10.70;;;5.13;;
71435;SDS011;59251;51.326;12.370;2023-06-26T09:38:26;8.63;;;5.30;;
71435;SDS011;59251;51.326;12.370;2023-06-26T09:40:55;10.10;;;5.05;;
71435;SDS011;59251;51.326;12.370;2023-06-26T09:43:22;8.23;;;4.63;;
71435;SDS011;59251;51.326;12.370;2023-06-26T09:45:49;11.20;;;5.78;;
71435;SDS011;59251;51.326;12.370;2023-06-26T09:48:16;12.15;;;4.43;;
71435;SDS011;59251;51.326;12.370;2023-06-26T09:50:43;9.23;;;4.70;;
71435;SDS011;59251;51.326;12.370;2023-06-26T09:53:10;8.43;;;4.40;;
71435;SDS011;59251;51.326;12.370;2023-06-26T09:55:38;8.52;;;4.88;;
71435;SDS011;59251;51.326;12.370;2023-06-26T09:58:10;8.82;;;5.10;;
71435;SDS011;59251;51.326;12.370;2023-06-26T10:00:40;10.07;;;5.15;;
71435;SDS011;59251;51.326;12.370;2023-06-26T10:03:06;10.17;;;5.03;;
71435;SDS011;59251;51.326;12.370;2023-06-26T10:05:33;8.73;;;4.38;;
71435;SDS011;59251;51.326;12.370;2023-06-26T10:08:00;9.48;;;4.95;;
71435;SDS011;59251;51.326;12.370;2023-06-26T10:10:28;9.25;;;4.80;;
71435;SDS011;59251;51.326;12.370;2023-06-26T10:12:57;8.80;;;4.72;;
71435;SDS011;59251;51.326;12.370;2023-06-26T10:15:28;8.00;;;4.57;;
71435;SDS011;59251;51.326;12.370;2023-06-26T10:17:56;7.90;;;4.63;;
71435;SDS011;59251;51.326;12.370;2023-06-26T10:20:24;8.00;;;4.68;;
71435;SDS011;59251;51.326;12.370;2023-06-26T10:22:51;8.30;;;4.65;;
71435;SDS011;59251;51.326;12.370;2023-06-26T10:25:19;10.57;;;5.32;;
71435;SDS011;59251;51.326;12.370;2023-06-26T10:27:51;8.07;;;4.77;;
71435;SDS011;59251;51.326;12.370;2023-06-26T10:30:22;8.55;;;4.57;;
71435;SDS011;59251;51.326;12.370;2023-06-26T10:32:54;9.45;;;4.95;;
71435;SDS011;59251;51.326;12.370;2023-06-26T10:35:23;8.27;;;4.55;;
71435;SDS011;59251;51.326;12.370;2023-06-26T10:37:51;9.15;;;5.20;;
71435;SDS011;59251;51.326;12.370;2023-06-26T10:40:21;8.37;;;4.90;;
71435;SDS011;59251;51.326;12.370;2023-06-26T10:42:51;7.63;;;4.30;;
71435;SDS011;59251;51.326;12.370;2023-06-26T10:45:32;9.45;;;6.03;;
71435;SDS011;59251;51.326;12.370;2023-06-26T10:48:01;9.27;;;4.88;;
71435;SDS011;59251;51.326;12.370;2023-06-26T10:50:29;8.77;;;4.90;;
71435;SDS011;59251;51.326;12.370;2023-06-26T10:53:14;9.07;;;4.77;;
71435;SDS011;59251;51.326;12.370;2023-06-26T10:55:47;8.38;;;4.85;;
71435;SDS011;59251;51.326;12.370;2023-06-26T10:58:31;8.73;;;4.80;;
71435;SDS011;59251;51.326;12.370;2023-06-26T11:01:13;8.60;;;4.53;;
71435;SDS011;59251;51.326;12.370;2023-06-26T11:03:46;8.88;;;5.18;;
71435;SDS011;59251;51.326;12.370;2023-06-26T11:06:17;8.80;;;4.37;;
71435;SDS011;59251;51.326;12.370;2023-06-26T11:08:44;10.10;;;4.88;;
71435;SDS011;59251;51.326;12.370;2023-06-26T11:11:12;9.38;;;4.78;;
71435;SDS011;59251;51.326;12.370;2023-06-26T11:13:40;11.00;;;5.07;;
71435;SDS011;59251;51.326;12.370;2023-06-26T11:16:07;10.82;;;4.65;;
71435;SDS011;59251;51.326;12.370;2023-06-26T11:18:34;8.57;;;5.40;;
71435;SDS011;59251;51.326;12.370;2023-06-26T11:21:06;7.93;;;4.43;;
71435;SDS011;59251;51.326;12.370;2023-06-26T11:23:34;8.35;;;4.65;;
71435;SDS011;59251;51.326;12.370;2023-06-26T11:26:12;8.90;;;5.05;;
71435;SDS011;59251;51.326;12.370;2023-06-26T11:28:45;8.38;;;4.70;;
71435;SDS011;59251;51.326;12.370;2023-06-26T11:31:23;9.40;;;5.10;;
71435;SDS011;59251;51.326;12.370;2023-06-26T11:33:50;8.60;;;4.68;;
71435;SDS011;59251;51.326;12.370;2023-06-26T11:36:18;9.18;;;4.97;;
71435;SDS011;59251;51.326;12.370;2023-06-26T11:38:45;10.45;;;5.10;;
71435;SDS011;59251;51.326;12.370;2023-06-26T11:41:16;8.38;;;4.85;;
71435;SDS011;59251;51.326;12.370;2023-06-26T11:43:43;8.10;;;5.10;;
71435;SDS011;59251;51.326;12.370;2023-06-26T11:46:10;12.15;;;5.10;;
71435;SDS011;59251;51.326;12.370;2023-06-26T11:48:36;7.63;;;4.75;;
71435;SDS011;59251;51.326;12.370;2023-06-26T11:51:04;7.80;;;4.60;;
71435;SDS011;59251;51.326;12.370;2023-06-26T11:53:32;8.80;;;4.55;;
71435;SDS011;59251;51.326;12.370;2023-06-26T11:56:07;7.90;;;4.80;;
71435;SDS011;59251;51.326;12.370;2023-06-26T11:58:35;9.48;;;4.68;;
71435;SDS011;59251;51.326;12.370;2023-06-26T12:01:02;8.15;;;5.30;;
71435;SDS011;59251;51.326;12.370;2023-06-26T12:03:29;14.50;;;5.50;;
71435;SDS011;59251;51.326;12.370;2023-06-26T12:05:58;10.57;;;4.70;;
71435;SDS011;59251;51.326;12.370;2023-06-26T12:08:26;9.20;;;5.33;;
71435;SDS011;59251;51.326;12.370;2023-06-26T12:10:54;8.38;;;4.97;;
71435;SDS011;59251;51.326;12.370;2023-06-26T12:13:22;8.35;;;5.10;;
71435;SDS011;59251;51.326;12.370;2023-06-26T12:15:49;8.73;;;4.85;;
71435;SDS011;59251;51.326;12.370;2023-06-26T12:18:16;7.78;;;5.03;;
71435;SDS011;59251;51.326;12.370;2023-06-26T12:20:42;8.50;;;4.83;;
71435;SDS011;59251;51.326;12.370;2023-06-26T12:23:12;7.95;;;4.93;;
71435;SDS011;59251;51.326;12.370;2023-06-26T12:25:39;8.05;;;5.32;;
71435;SDS011;59251;51.326;12.370;2023-06-26T12:28:15;8.85;;;4.90;;
71435;SDS011;59251;51.326;12.370;2023-06-26T12:30:45;9.30;;;5.40;;
71435;SDS011;59251;51.326;12.370;2023-06-26T12:33:13;7.97;;;4.97;;
71435;SDS011;59251;51.326;12.370;2023-06-26T12:35:40;8.43;;;5.00;;
71435;SDS011;59251;51.326;12.370;2023-06-26T12:38:08;7.93;;;5.10;;
71435;SDS011;59251;51.326;12.370;2023-06-26T12:40:35;9.45;;;5.00;;
71435;SDS011;59251;51.326;12.370;2023-06-26T12:43:11;8.23;;;4.60;;
71435;SDS011;59251;51.326;12.370;2023-06-26T12:45:40;9.90;;;4.80;;
71435;SDS011;59251;51.326;12.370;2023-06-26T12:48:08;8.93;;;4.80;;
71435;SDS011;59251;51.326;12.370;2023-06-26T12:50:37;7.88;;;5.05;;
71435;SDS011;59251;51.326;12.370;2023-06-26T12:53:04;7.80;;;4.80;;
71435;SDS011;59251;51.326;12.370;2023-06-26T12:55:31;8.75;;;4.75;;
71435;SDS011;59251;51.326;12.370;2023-06-26T12:57:58;8.20;;;4.73;;
71435;SDS011;59251;51.326;12.370;2023-06-26T13:00:25;8.45;;;4.68;;
71435;SDS011;59251;51.326;12.370;2023-06-26T13:02:53;7.95;;;4.78;;
71435;SDS011;59251;51.326;12.370;2023-06-26T13:05:20;8.27;;;4.82;;
71435;SDS011;59251;51.326;12.370;2023-06-26T13:07:46;7.70;;;4.82;;
71435;SDS011;59251;51.326;12.370;2023-06-26T13:10:13;8.43;;;5.00;;
71435;SDS011;59251;51.326;12.370;2023-06-26T13:12:40;10.02;;;5.20;;
71435;SDS011;59251;51.326;12.370;2023-06-26T13:15:07;9.10;;;5.43;;
71435;SDS011;59251;51.326;12.370;2023-06-26T13:17:34;8.40;;;5.10;;
71435;SDS011;59251;51.326;12.370;2023-06-26T13:20:03;10.25;;;5.80;;
71435;SDS011;59251;51.326;12.370;2023-06-26T13:22:31;9.13;;;5.37;;
71435;SDS011;59251;51.326;12.370;2023-06-26T13:24:57;8.88;;;4.97;;
71435;SDS011;59251;51.326;12.370;2023-06-26T13:27:24;8.02;;;4.70;;
71435;SDS011;59251;51.326;12.370;2023-06-26T13:29:51;8.63;;;5.38;;
71435;SDS011;59251;51.326;12.370;2023-06-26T13:32:18;8.70;;;5.32;;
71435;SDS011;59251;51.326;12.370;2023-06-26T13:34:44;9.80;;;4.80;;
71435;SDS011;59251;51.326;12.370;2023-06-26T13:37:13;8.60;;;5.60;;
71435;SDS011;59251;51.326;12.370;2023-06-26T13:39:39;8.80;;;5.50;;
71435;SDS011;59251;51.326;12.370;2023-06-26T13:42:06;8.55;;;5.18;;
71435;SDS011;59251;51.326;12.370;2023-06-26T13:44:34;8.85;;;5.57;;
71435;SDS011;59251;51.326;12.370;2023-06-26T13:47:00;7.97;;;4.90;;
71435;SDS011;59251;51.326;12.370;2023-06-26T13:49:27;8.70;;;4.95;;
71435;SDS011;59251;51.326;12.370;2023-06-26T13:51:54;9.75;;;5.10;;
71435;SDS011;59251;51.326;12.370;2023-06-26T13:54:22;11.85;;;5.32;;
71435;SDS011;59251;51.326;12.370;2023-06-26T13:56:48;9.98;;;4.82;;
71435;SDS011;59251;51.326;12.370;2023-06-26T13:59:15;8.20;;;5.07;;
71435;SDS011;59251;51.326;12.370;2023-06-26T14:01:43;10.05;;;4.88;;
71435;SDS011;59251;51.326;12.370;2023-06-26T14:04:09;11.38;;;4.97;;
71435;SDS011;59251;51.326;12.370;2023-06-26T14:06:36;10.90;;;4.90;;
71435;SDS011;59251;51.326;12.370;2023-06-26T14:09:03;31.27;;;6.72;;
71435;SDS011;59251;51.326;12.370;2023-06-26T14:11:31;22.33;;;7.50;;
71435;SDS011;59251;51.326;12.370;2023-06-26T14:13:59;22.63;;;6.53;;
71435;SDS011;59251;51.326;12.370;2023-06-26T14:16:25;16.58;;;6.75;;
71435;SDS011;59251;51.326;12.370;2023-06-26T14:18:53;13.98;;;6.05;;
71435;SDS011;59251;51.326;12.370;2023-06-26T14:21:20;11.60;;;6.43;;
71435;SDS011;59251;51.326;12.370;2023-06-26T14:23:47;15.03;;;7.10;;
71435;SDS011;59251;51.326;12.370;2023-06-26T14:26:14;13.00;;;6.55;;
71435;SDS011;59251;51.326;12.370;2023-06-26T14:28:42;15.18;;;7.13;;
71435;SDS011;59251;51.326;12.370;2023-06-26T14:31:10;16.23;;;7.57;;
71435;SDS011;59251;51.326;12.370;2023-06-26T14:33:36;17.55;;;7.10;;